Time;durP1;ratioP1;P1;durP2;ratioP2;P2;SDS_P1;SDS_P2;PMS_P1;PMS_P2;Temp;Humidity;BMP_temperature;BMP_pressure;BME280_temperature;BME280_humidity;BME280_pressure;Samples;Min_cycle;Max_cycle;Signal;HPM_P1;HPM_P2
2023/03/04 00:00:55;;;;;;;71.80;41.10;;;2.90;32.70;;;;;;4997779;28;20487;-67
2023/03/04 00:03:22;;;;;;;70.57;40.40;;;2.90;32.60;;;;;;5002206;28;20510;-67
2023/03/04 00:05:49;;;;;;;71.57;41.40;;;2.80;32.50;;;;;;4999832;28;20472;-67
2023/03/04 00:08:15;;;;;;;81.20;45.17;;;2.80;32.50;;;;;;4999896;28;20467;-67
2023/03/04 00:10:42;;;;;;;71.33;41.73;;;2.80;32.50;;;;;;5000531;28;20452;-67
2023/03/04 00:13:10;;;;;;;80.03;44.40;;;2.80;32.30;;;;;;4998927;28;20479;-67
2023/03/04 00:15:37;;;;;;;76.13;42.67;;;2.70;32.50;;;;;;5002790;28;20492;-67
2023/03/04 00:18:04;;;;;;;77.67;45.60;;;2.60;32.50;;;;;;5001114;28;20459;-67
2023/03/04 00:20:30;;;;;;;73.57;44.53;;;2.60;32.80;;;;;;5006424;28;20474;-67
2023/03/04 00:22:57;;;;;;;69.87;44.13;;;2.60;33.00;;;;;;5003832;28;21290;-69
2023/03/04 00:25:24;;;;;;;80.40;46.20;;;2.50;33.10;;;;;;5009648;28;20487;-67
2023/03/04 00:27:50;;;;;;;76.33;44.40;;;2.50;33.40;;;;;;5003057;28;20463;-67
2023/03/04 00:30:19;;;;;;;85.57;45.50;;;2.40;33.80;;;;;;5005227;28;20462;-68
2023/03/04 00:32:45;;;;;;;80.03;43.30;;;2.40;33.90;;;;;;5005165;28;20475;-68
2023/03/04 00:35:12;;;;;;;69.77;42.37;;;2.30;33.80;;;;;;5004400;28;20487;-68
2023/03/04 00:37:39;;;;;;;71.13;42.67;;;2.30;33.80;;;;;;5006103;28;20989;-68
2023/03/04 00:40:07;;;;;;;74.17;44.17;;;2.30;33.90;;;;;;5005946;28;20463;-68
2023/03/04 00:42:34;;;;;;;77.33;43.40;;;2.20;33.90;;;;;;5007914;28;20468;-67
2023/03/04 00:45:00;;;;;;;74.27;44.47;;;2.20;34.00;;;;;;5002389;28;20511;-68
2023/03/04 00:47:28;;;;;;;68.07;41.23;;;2.20;34.10;;;;;;5005041;28;20470;-68
2023/03/04 00:49:55;;;;;;;69.93;42.00;;;2.20;34.30;;;;;;4997950;28;22681;-68
2023/03/04 00:52:22;;;;;;;78.63;45.67;;;2.10;34.40;;;;;;5007358;28;20971;-68
2023/03/04 00:54:49;;;;;;;82.90;44.23;;;2.10;34.50;;;;;;5001851;28;20491;-68
2023/03/04 00:57:15;;;;;;;73.53;41.60;;;2.10;34.50;;;;;;5002159;28;20464;-68
2023/03/04 00:59:43;;;;;;;73.37;42.10;;;2.10;34.60;;;;;;5005166;28;20464;-68
2023/03/04 01:02:10;;;;;;;67.10;42.00;;;2.10;34.60;;;;;;5004406;28;20542;-68
2023/03/04 01:04:38;;;;;;;71.40;42.40;;;2.00;34.90;;;;;;5002914;28;20757;-68
2023/03/04 01:07:05;;;;;;;83.10;43.37;;;2.00;34.90;;;;;;5002016;28;20465;-68
2023/03/04 01:09:32;;;;;;;71.40;39.70;;;2.00;35.00;;;;;;5007513;28;20455;-68
2023/03/04 01:11:59;;;;;;;66.93;39.67;;;2.00;35.00;;;;;;5006207;28;20951;-68
2023/03/04 01:14:25;;;;;;;66.43;39.67;;;2.00;35.10;;;;;;5003837;28;21569;-68
2023/03/04 01:16:52;;;;;;;69.60;39.70;;;2.00;35.00;;;;;;5007014;28;20485;-68
2023/03/04 01:19:19;;;;;;;77.43;43.07;;;1.90;34.90;;;;;;5004372;28;20468;-68
2023/03/04 01:21:47;;;;;;;80.03;42.03;;;1.90;35.20;;;;;;5006111;28;20547;-68
2023/03/04 01:24:14;;;;;;;74.90;42.17;;;1.90;35.30;;;;;;5004341;28;20486;-68
2023/03/04 01:26:40;;;;;;;71.30;42.47;;;1.90;35.40;;;;;;5003849;28;20472;-68
2023/03/04 01:29:07;;;;;;;66.20;39.77;;;2.00;35.40;;;;;;5007566;28;20777;-68
2023/03/04 01:31:34;;;;;;;68.73;40.00;;;1.90;35.70;;;;;;5006378;28;20476;-68
2023/03/04 01:34:00;;;;;;;72.53;41.73;;;1.90;35.80;;;;;;5004737;28;20476;-68
2023/03/04 01:36:27;;;;;;;75.73;42.37;;;2.00;35.60;;;;;;5002731;28;20471;-68
2023/03/04 01:38:56;;;;;;;74.10;39.63;;;1.90;35.50;;;;;;5005577;28;20459;-68
2023/03/04 01:41:25;;;;;;;68.03;43.20;;;2.00;35.40;;;;;;5000936;28;20467;-68
2023/03/04 01:43:53;;;;;;;76.57;43.50;;;1.90;35.50;;;;;;5004382;28;20496;-68
2023/03/04 01:46:20;;;;;;;75.43;43.10;;;1.90;35.80;;;;;;5005420;28;21071;-68
2023/03/04 01:48:47;;;;;;;74.77;42.00;;;1.90;35.80;;;;;;5003998;28;20840;-68
2023/03/04 01:51:16;;;;;;;73.97;40.73;;;1.90;35.90;;;;;;5005236;28;20452;-68
2023/03/04 01:53:44;;;;;;;73.17;39.67;;;1.80;35.90;;;;;;5000064;28;20478;-68
2023/03/04 01:56:20;;;;;;;70.53;40.80;;;1.80;36.10;;;;;;5002608;28;20468;-68
2023/03/04 01:59:07;;;;;;;73.13;43.80;;;1.80;36.10;;;;;;5004646;28;20472;-68
2023/03/04 02:01:34;;;;;;;65.13;40.47;;;1.80;36.10;;;;;;5005280;28;20502;-68
2023/03/04 02:04:01;;;;;;;70.57;40.37;;;1.70;35.90;;;;;;5005681;28;20487;-68
2023/03/04 02:06:28;;;;;;;64.77;40.07;;;1.70;35.80;;;;;;4998441;28;20461;-68
2023/03/04 02:08:54;;;;;;;70.20;42.30;;;1.70;35.70;;;;;;5003473;28;20460;-69
2023/03/04 02:11:22;;;;;;;68.63;40.90;;;1.70;35.60;;;;;;5004624;28;20475;-68
2023/03/04 02:13:49;;;;;;;68.00;42.17;;;1.70;35.50;;;;;;5001530;28;20887;-68
2023/03/04 02:16:16;;;;;;;75.27;42.17;;;1.70;35.50;;;;;;5008194;28;20479;-69
2023/03/04 02:18:43;;;;;;;68.20;40.10;;;1.70;35.30;;;;;;5001813;28;20464;-69
2023/03/04 02:21:17;;;;;;;72.63;41.53;;;1.60;35.40;;;;;;5004227;28;20587;-69
2023/03/04 02:23:49;;;;;;;71.00;41.67;;;1.60;35.50;;;;;;5002614;28;20535;-68
2023/03/04 02:26:19;;;;;;;69.90;40.60;;;1.60;35.60;;;;;;5000827;28;20959;-68
2023/03/04 02:28:47;;;;;;;69.20;39.10;;;1.60;35.70;;;;;;5003938;28;20460;-68
2023/03/04 02:31:24;;;;;;;68.30;39.20;;;1.50;35.70;;;;;;4999179;28;20484;-68
2023/03/04 02:33:52;;;;;;;69.53;39.27;;;1.50;35.90;;;;;;5001984;28;20475;-68
2023/03/04 02:36:19;;;;;;;67.00;38.93;;;1.50;35.80;;;;;;5003705;28;20467;-68
2023/03/04 02:38:46;;;;;;;71.33;40.50;;;1.50;35.80;;;;;;5002834;28;20460;-69
2023/03/04 02:41:15;;;;;;;74.70;41.60;;;1.50;35.80;;;;;;4999235;28;20463;-68
2023/03/04 02:43:43;;;;;;;72.03;42.10;;;1.50;35.70;;;;;;5001382;28;20488;-68
2023/03/04 02:46:13;;;;;;;65.20;38.80;;;1.50;35.70;;;;;;5004533;28;20471;-68
2023/03/04 02:48:39;;;;;;;56.77;36.30;;;1.40;35.70;;;;;;5006323;28;20455;-68
2023/03/04 02:51:06;;;;;;;71.20;40.97;;;1.40;35.90;;;;;;5007445;28;21126;-68
2023/03/04 02:53:33;;;;;;;70.57;41.30;;;1.40;36.10;;;;;;4999711;28;20468;-68
2023/03/04 02:55:59;;;;;;;68.30;39.60;;;1.30;36.10;;;;;;5003283;28;20478;-68
2023/03/04 02:58:26;;;;;;;67.57;38.13;;;1.30;36.10;;;;;;4997764;28;20487;-68
2023/03/04 03:00:55;;;;;;;65.27;39.13;;;1.30;36.00;;;;;;5003324;28;20480;-68
2023/03/04 03:03:21;;;;;;;64.47;39.47;;;1.30;35.90;;;;;;5002075;28;21054;-68
2023/03/04 03:05:48;;;;;;;65.90;39.50;;;1.20;36.40;;;;;;5002863;28;21026;-68
2023/03/04 03:08:15;;;;;;;71.67;40.90;;;1.20;35.90;;;;;;5005500;28;20463;-68
2023/03/04 03:10:42;;;;;;;73.97;41.20;;;1.20;35.80;;;;;;5004189;28;20459;-68
2023/03/04 03:13:09;;;;;;;71.67;38.17;;;1.20;35.80;;;;;;5003702;28;20463;-68
2023/03/04 03:15:40;;;;;;;63.80;38.67;;;1.20;35.80;;;;;;5000276;28;20487;-68
2023/03/04 03:18:09;;;;;;;66.73;38.70;;;1.10;35.80;;;;;;5005156;28;20959;-68
2023/03/04 03:20:36;;;;;;;64.03;38.77;;;1.10;35.80;;;;;;5006207;28;20955;-68
2023/03/04 03:23:03;;;;;;;65.37;38.90;;;1.10;35.70;;;;;;4997538;28;20468;-68
2023/03/04 03:25:30;;;;;;;71.43;37.63;;;1.10;35.70;;;;;;5006052;28;20852;-68
2023/03/04 03:27:56;;;;;;;60.90;35.50;;;1.00;35.70;;;;;;5002921;28;20463;-68
2023/03/04 03:30:23;;;;;;;72.90;40.03;;;1.00;35.70;;;;;;5000426;28;22640;-68
2023/03/04 03:32:50;;;;;;;75.27;43.23;;;1.00;35.70;;;;;;5003260;28;20468;-68
2023/03/04 03:35:18;;;;;;;73.47;40.77;;;1.00;35.80;;;;;;5000831;28;20485;-68
2023/03/04 03:37:45;;;;;;;65.23;38.23;;;0.90;35.90;;;;;;5000424;28;20467;-68
2023/03/04 03:40:13;;;;;;;85.17;42.53;;;0.90;36.20;;;;;;5003188;28;20468;-68
2023/03/04 03:42:40;;;;;;;74.00;39.87;;;0.90;36.30;;;;;;4999239;28;21147;-70
2023/03/04 03:45:07;;;;;;;70.20;41.83;;;0.90;36.50;;;;;;4999477;28;21022;-67
2023/03/04 03:47:34;;;;;;;74.23;41.20;;;0.90;36.50;;;;;;5004020;28;20886;-68
2023/03/04 03:50:01;;;;;;;66.77;38.63;;;0.80;36.50;;;;;;5003404;28;20464;-69
2023/03/04 03:52:29;;;;;;;68.83;38.20;;;0.80;36.50;;;;;;5004548;28;20463;-67
2023/03/04 03:54:56;;;;;;;70.10;40.87;;;0.80;36.50;;;;;;5000194;28;20494;-67
2023/03/04 03:57:22;;;;;;;74.87;39.33;;;0.90;36.70;;;;;;5002308;28;20459;-67
2023/03/04 03:59:49;;;;;;;73.67;38.67;;;0.80;36.60;;;;;;5006585;28;20464;-68
2023/03/04 04:02:16;;;;;;;70.70;38.83;;;0.80;36.70;;;;;;5001475;28;20484;-68
2023/03/04 04:04:42;;;;;;;67.47;39.63;;;0.80;36.70;;;;;;5005468;28;20484;-68
2023/03/04 04:07:09;;;;;;;72.77;40.93;;;0.70;36.70;;;;;;5004120;28;20460;-68
2023/03/04 04:09:37;;;;;;;68.50;39.43;;;0.70;36.80;;;;;;5000993;28;20475;-67
2023/03/04 04:12:05;;;;;;;77.87;39.27;;;0.70;37.10;;;;;;5000597;28;20472;-68
2023/03/04 04:14:32;;;;;;;72.67;39.97;;;0.70;37.30;;;;;;5002083;28;20481;-67
2023/03/04 04:16:59;;;;;;;74.87;38.73;;;0.70;37.30;;;;;;5006681;28;20463;-68
2023/03/04 04:19:26;;;;;;;66.60;37.93;;;0.70;37.40;;;;;;5000402;28;20459;-68
2023/03/04 04:21:53;;;;;;;73.23;42.23;;;0.70;37.30;;;;;;5004520;28;20956;-68
2023/03/04 04:24:19;;;;;;;68.23;38.83;;;0.70;37.30;;;;;;5001967;28;20479;-68
2023/03/04 04:26:47;;;;;;;72.73;38.37;;;0.70;37.30;;;;;;5003777;28;20460;-68
2023/03/04 04:29:15;;;;;;;74.60;40.33;;;0.60;37.20;;;;;;5000941;28;20464;-68
2023/03/04 04:31:41;;;;;;;72.13;38.40;;;0.60;37.20;;;;;;5003671;28;20493;-67
2023/03/04 04:34:08;;;;;;;74.77;39.83;;;0.60;37.20;;;;;;5004138;28;20480;-67
2023/03/04 04:36:35;;;;;;;79.37;40.67;;;0.60;37.20;;;;;;5003984;28;20478;-68
2023/03/04 04:39:02;;;;;;;70.87;38.53;;;0.60;37.20;;;;;;5000690;28;20472;-68
2023/03/04 04:41:31;;;;;;;65.27;38.20;;;0.60;37.20;;;;;;5000681;28;20464;-68
2023/03/04 04:43:59;;;;;;;67.87;38.03;;;0.60;37.10;;;;;;5003417;28;21018;-68
2023/03/04 04:46:26;;;;;;;71.00;39.23;;;0.60;37.70;;;;;;5002870;28;20460;-68
2023/03/04 04:48:53;;;;;;;74.63;38.03;;;0.60;37.30;;;;;;5003873;28;20464;-68
2023/03/04 04:51:20;;;;;;;72.37;38.13;;;0.60;37.50;;;;;;5005239;28;20463;-67
2023/03/04 04:53:46;;;;;;;68.17;35.70;;;0.60;37.60;;;;;;5004869;28;20483;-65
2023/03/04 04:56:15;;;;;;;69.47;38.10;;;0.60;37.60;;;;;;5032460;22;20494;-63
2023/03/04 04:58:43;;;;;;;73.30;37.47;;;0.60;37.60;;;;;;5026697;28;20490;-63
2023/03/04 05:01:11;;;;;;;70.83;37.53;;;0.60;37.60;;;;;;5023765;28;20478;-63
2023/03/04 05:03:39;;;;;;;64.90;39.30;;;0.60;37.70;;;;;;5027663;28;20470;-62
2023/03/04 05:06:08;;;;;;;66.50;36.97;;;0.70;37.80;;;;;;5028100;28;20483;-63
2023/03/04 05:08:35;;;;;;;73.20;38.80;;;0.70;37.90;;;;;;5026076;28;20470;-63
2023/03/04 05:11:02;;;;;;;72.63;39.33;;;0.70;37.90;;;;;;5025057;28;20465;-63
2023/03/04 05:13:29;;;;;;;70.13;39.40;;;0.70;38.00;;;;;;5027676;28;20462;-63
2023/03/04 05:15:57;;;;;;;75.00;38.70;;;0.60;38.10;;;;;;5027210;28;20485;-63
2023/03/04 05:18:26;;;;;;;75.93;41.20;;;0.60;38.30;;;;;;5028219;28;20459;-63
2023/03/04 05:20:55;;;;;;;70.10;38.70;;;0.60;38.30;;;;;;5027815;28;20466;-63
2023/03/04 05:23:22;;;;;;;77.57;39.27;;;0.50;38.40;;;;;;5023186;28;20477;-63
2023/03/04 05:25:49;;;;;;;75.43;39.83;;;0.50;38.30;;;;;;5025589;28;20521;-63
2023/03/04 05:28:16;;;;;;;68.80;39.90;;;0.50;38.40;;;;;;5018557;28;20462;-63
2023/03/04 05:30:44;;;;;;;75.00;39.37;;;0.50;38.30;;;;;;5021764;28;20470;-63
2023/03/04 05:33:12;;;;;;;75.87;39.97;;;0.50;38.20;;;;;;5023720;28;20470;-63
2023/03/04 05:35:41;;;;;;;72.37;39.97;;;0.50;38.20;;;;;;5025811;28;20491;-63
2023/03/04 05:38:10;;;;;;;73.17;39.07;;;0.40;38.10;;;;;;5022893;28;20466;-63
2023/03/04 05:40:37;;;;;;;77.23;40.83;;;0.40;38.20;;;;;;5025526;28;20470;-63
2023/03/04 05:43:05;;;;;;;71.80;38.13;;;0.40;38.20;;;;;;5029104;28;20459;-63
2023/03/04 05:45:31;;;;;;;70.40;40.03;;;0.40;38.20;;;;;;5024391;28;20489;-62
2023/03/04 05:47:58;;;;;;;78.90;39.70;;;0.40;38.20;;;;;;5024794;28;20467;-63
2023/03/04 05:50:25;;;;;;;72.13;36.33;;;0.40;38.20;;;;;;5022393;28;20489;-63
2023/03/04 05:52:53;;;;;;;74.70;40.50;;;0.30;38.20;;;;;;5028920;28;20454;-63
2023/03/04 05:55:20;;;;;;;70.07;38.57;;;0.30;38.20;;;;;;5024922;28;21018;-63
2023/03/04 05:57:47;;;;;;;74.77;38.73;;;0.30;38.00;;;;;;5027282;28;20469;-63
2023/03/04 06:00:15;;;;;;;67.13;36.47;;;0.30;37.80;;;;;;5025370;28;20466;-63
2023/03/04 06:02:43;;;;;;;66.27;36.50;;;0.30;37.70;;;;;;5026851;28;20455;-63
2023/03/04 06:05:11;;;;;;;71.03;38.57;;;0.30;37.60;;;;;;5026708;28;20479;-63
2023/03/04 06:07:37;;;;;;;78.93;40.67;;;0.30;37.50;;;;;;5026977;28;20471;-63
2023/03/04 06:10:07;;;;;;;78.30;39.70;;;0.40;37.70;;;;;;5024158;28;20462;-63
2023/03/04 06:12:34;;;;;;;67.27;36.77;;;0.40;37.70;;;;;;5024095;28;20463;-63
2023/03/04 06:15:01;;;;;;;75.63;40.40;;;0.50;37.80;;;;;;5024872;28;20479;-63
2023/03/04 06:17:28;;;;;;;84.80;40.03;;;0.50;37.70;;;;;;5026393;28;21016;-63
2023/03/04 06:19:55;;;;;;;63.00;35.07;;;0.70;37.90;;;;;;5026143;28;20463;-63
2023/03/04 06:22:22;;;;;;;62.30;36.20;;;0.80;37.70;;;;;;5024306;28;20447;-63
2023/03/04 06:24:48;;;;;;;67.93;37.53;;;0.90;37.60;;;;;;5023604;28;20475;-63
2023/03/04 06:27:16;;;;;;;72.17;37.70;;;1.00;37.40;;;;;;5024532;28;20466;-63
2023/03/04 06:29:43;;;;;;;68.80;34.90;;;1.10;37.20;;;;;;5025337;28;21023;-62
2023/03/04 06:32:10;;;;;;;67.27;35.80;;;1.30;37.10;;;;;;5025436;28;20478;-63
2023/03/04 06:34:36;;;;;;;67.50;38.97;;;1.40;36.50;;;;;;5023833;28;20513;-63
2023/03/04 06:37:03;;;;;;;66.07;37.87;;;1.80;35.80;;;;;;5027257;28;20467;-63
2023/03/04 06:39:30;;;;;;;62.40;35.67;;;2.10;34.80;;;;;;5026212;28;20800;-63
2023/03/04 06:41:57;;;;;;;65.27;36.40;;;2.40;33.80;;;;;;5024349;28;20496;-63
2023/03/04 06:44:25;;;;;;;63.00;37.00;;;2.80;32.70;;;;;;5022554;28;20491;-63
2023/03/04 06:46:51;;;;;;;61.60;35.50;;;3.10;32.10;;;;;;5023031;28;20478;-64
2023/03/04 06:49:18;;;;;;;66.07;34.80;;;3.40;31.90;;;;;;5021787;28;20472;-63
2023/03/04 06:51:45;;;;;;;58.20;34.70;;;3.60;31.30;;;;;;5017838;28;20463;-63
2023/03/04 06:54:11;;;;;;;58.17;36.03;;;3.80;29.90;;;;;;5024604;28;20594;-64
2023/03/04 06:56:38;;;;;;;61.97;37.20;;;4.00;28.70;;;;;;5019350;28;20470;-63
2023/03/04 06:59:05;;;;;;;59.53;33.30;;;4.10;29.20;;;;;;5026483;28;20455;-63
2023/03/04 07:01:34;;;;;;;58.40;33.60;;;4.30;29.30;;;;;;5021453;28;20474;-63
2023/03/04 07:04:01;;;;;;;59.43;37.60;;;4.40;28.60;;;;;;5026096;28;20517;-64
2023/03/04 07:06:28;;;;;;;56.90;34.07;;;4.60;28.20;;;;;;5017370;28;20483;-64
2023/03/04 07:08:55;;;;;;;52.87;32.37;;;4.70;28.00;;;;;;5026778;28;20466;-63
2023/03/04 07:11:23;;;;;;;56.63;33.03;;;5.10;27.70;;;;;;5022156;28;21235;-63
2023/03/04 07:13:50;;;;;;;54.67;35.70;;;5.50;26.60;;;;;;5023478;28;20479;-63
2023/03/04 07:16:19;;;;;;;59.07;32.80;;;6.00;26.80;;;;;;5024338;28;21049;-66
2023/03/04 07:18:47;;;;;;;52.20;33.33;;;6.40;25.90;;;;;;5023481;28;20466;-65
2023/03/04 07:21:15;;;;;;;52.93;32.47;;;6.70;25.50;;;;;;5018718;28;20459;-65
2023/03/04 07:23:43;;;;;;;50.43;32.70;;;7.00;21.60;;;;;;5026331;28;20466;-65
2023/03/04 07:26:09;;;;;;;52.27;33.30;;;7.20;20.40;;;;;;5025432;28;20489;-66
2023/03/04 07:28:38;;;;;;;54.87;34.30;;;7.30;19.70;;;;;;5026852;28;20470;-65
2023/03/04 07:31:10;;;;;;;51.67;34.13;;;7.40;18.90;;;;;;5016951;28;20881;-64
2023/03/04 07:33:36;;;;;;;51.63;34.30;;;7.60;17.90;;;;;;5019172;28;20499;-64
2023/03/04 07:36:05;;;;;;;52.73;32.07;;;7.90;17.80;;;;;;5022350;28;20959;-64
2023/03/04 07:38:32;;;;;;;48.93;33.80;;;8.20;17.10;;;;;;5027330;28;20466;-65
2023/03/04 07:41:00;;;;;;;48.57;33.67;;;8.50;16.60;;;;;;5018737;28;20541;-65
2023/03/04 07:43:27;;;;;;;53.67;35.40;;;8.90;15.70;;;;;;5021371;28;20462;-66
2023/03/04 07:46:00;;;;;;;54.90;36.23;;;9.20;14.70;;;;;;5021348;28;20490;-66
2023/03/04 07:48:27;;;;;;;52.47;34.60;;;9.70;13.90;;;;;;5025368;28;20508;-66
2023/03/04 07:51:09;;;;;;;46.87;33.43;;;10.60;12.80;;;;;;5021198;28;20538;-66
2023/03/04 07:53:36;;;;;;;54.80;36.77;;;11.50;10.50;;;;;;5018918;28;20994;-65
2023/03/04 07:56:04;;;;;;;53.50;36.53;;;12.40;9.10;;;;;;5021897;28;20495;-66
2023/03/04 07:58:31;;;;;;;50.77;36.40;;;13.40;7.30;;;;;;5017974;28;20467;-66
2023/03/04 08:00:58;;;;;;;46.50;33.30;;;14.50;5.60;;;;;;5021317;28;20538;-67
2023/03/04 08:03:28;;;;;;;51.40;34.83;;;15.60;3.80;;;;;;5017093;28;20518;-65
2023/03/04 08:05:55;;;;;;;54.17;36.27;;;16.60;1.70;;;;;;5020959;28;21041;-65
2023/03/04 08:08:23;;;;;;;48.80;35.50;;;17.50;1.00;;;;;;5021139;28;20470;-64
2023/03/04 08:10:49;;;;;;;48.57;34.90;;;18.50;1.00;;;;;;5023081;28;20500;-66
2023/03/04 08:13:16;;;;;;;50.40;35.80;;;19.40;1.00;;;;;;5019921;28;20455;-66
2023/03/04 08:15:43;;;;;;;46.70;36.03;;;20.40;1.00;;;;;;5017617;28;20483;-66
2023/03/04 08:18:10;;;;;;;46.37;36.30;;;21.30;1.00;;;;;;5016932;28;20459;-66
2023/03/04 08:20:36;;;;;;;51.43;37.70;;;22.20;1.00;;;;;;5018721;28;20466;-66
2023/03/04 08:23:03;;;;;;;47.00;35.70;;;22.90;1.00;;;;;;5035450;22;20471;-70
2023/03/04 08:25:31;;;;;;;43.20;35.10;;;23.60;1.00;;;;;;5017044;28;20483;-71
2023/03/04 08:27:59;;;;;;;38.87;33.80;;;24.30;1.00;;;;;;5020991;28;20462;-70
2023/03/04 08:30:26;;;;;;;42.00;33.23;;;24.80;1.00;;;;;;5020184;28;21173;-70
2023/03/04 08:32:52;;;;;;;43.13;34.53;;;25.50;1.00;;;;;;5021920;28;20466;-71
2023/03/04 08:35:19;;;;;;;38.27;33.40;;;26.10;1.00;;;;;;5021941;28;21003;-71
2023/03/04 08:37:46;;;;;;;42.00;32.60;;;26.50;1.00;;;;;;5042320;22;20485;-63
2023/03/04 08:40:14;;;;;;;41.00;31.90;;;26.80;1.00;;;;;;5030731;28;20530;-64
2023/03/04 08:42:42;;;;;;;35.37;30.30;;;27.10;1.00;;;;;;5042127;28;20549;-62
2023/03/04 08:45:10;;;;;;;38.20;30.07;;;27.30;1.00;;;;;;5041060;28;20457;-63
2023/03/04 08:47:38;;;;;;;34.00;26.03;;;27.20;1.00;;;;;;5038033;28;20489;-62
2023/03/04 08:50:07;;;;;;;37.93;26.77;;;27.70;1.00;;;;;;5034861;28;20458;-64
2023/03/04 08:52:34;;;;;;;28.57;23.27;;;28.10;1.00;;;;;;5037498;28;20493;-63
2023/03/04 08:55:01;;;;;;;29.90;24.17;;;28.60;1.00;;;;;;5036238;28;20455;-63
2023/03/04 08:57:28;;;;;;;28.93;23.23;;;28.90;1.00;;;;;;5039754;28;20481;-63
2023/03/04 08:59:57;;;;;;;31.20;25.37;;;29.00;1.00;;;;;;5044082;28;20947;-64
2023/03/04 09:02:24;;;;;;;35.40;30.50;;;29.40;1.00;;;;;;5037619;28;20552;-63
2023/03/04 09:04:53;;;;;;;33.03;29.47;;;29.80;1.00;;;;;;5040725;28;20550;-63
2023/03/04 09:07:20;;;;;;;30.47;27.20;;;30.30;1.00;;;;;;5044642;28;20513;-64
2023/03/04 09:09:47;;;;;;;31.00;27.30;;;30.50;1.00;;;;;;5043466;28;20464;-64
2023/03/04 09:12:14;;;;;;;33.60;27.90;;;30.50;1.00;;;;;;5047727;28;20545;-63
2023/03/04 09:14:41;;;;;;;33.03;28.90;;;30.80;1.00;;;;;;5035126;28;20462;-65
2023/03/04 09:17:10;;;;;;;30.43;27.17;;;30.90;1.00;;;;;;5038652;28;20554;-63
2023/03/04 09:19:37;;;;;;;31.47;27.30;;;31.20;1.00;;;;;;5040424;28;20458;-63
2023/03/04 09:22:04;;;;;;;31.20;27.80;;;31.50;1.00;;;;;;5035367;28;20833;-63
2023/03/04 09:24:31;;;;;;;31.93;28.37;;;31.70;1.00;;;;;;5044460;28;20464;-63
2023/03/04 09:27:01;;;;;;;31.10;27.13;;;32.10;1.00;;;;;;5045731;28;20482;-62
2023/03/04 09:29:28;;;;;;;29.57;26.40;;;32.50;1.00;;;;;;5035553;28;20469;-63
2023/03/04 09:31:55;;;;;;;33.90;27.97;;;32.80;1.00;;;;;;5038874;28;21201;-62
2023/03/04 09:34:24;;;;;;;29.73;26.53;;;33.00;1.00;;;;;;5040769;28;20535;-62
2023/03/04 09:36:51;;;;;;;30.73;27.53;;;33.10;1.00;;;;;;5039992;28;20486;-65
2023/03/04 09:39:18;;;;;;;30.53;27.27;;;33.30;1.00;;;;;;5036037;28;20463;-62
2023/03/04 09:41:48;;;;;;;31.70;28.23;;;33.30;1.00;;;;;;5040247;28;20467;-62
2023/03/04 09:44:21;;;;;;;33.33;28.60;;;33.20;1.00;;;;;;5039689;28;20462;-62
2023/03/04 09:46:49;;;;;;;28.83;25.73;;;33.10;1.00;;;;;;5038416;28;20998;-62
2023/03/04 09:49:19;;;;;;;29.00;25.90;;;32.40;1.00;;;;;;5037185;28;20489;-62
2023/03/04 09:51:57;;;;;;;28.77;25.60;;;31.70;1.00;;;;;;5035697;28;20459;-62
2023/03/04 09:54:41;;;;;;;27.43;24.43;;;31.40;1.00;;;;;;5038800;28;20480;-61
2023/03/04 09:57:23;;;;;;;29.90;24.90;;;31.50;1.00;;;;;;5041682;28;20457;-61
2023/03/04 09:59:59;;;;;;;29.13;25.10;;;31.50;1.00;;;;;;5035100;28;21357;-63
2023/03/04 10:02:35;;;;;;;31.10;25.50;;;31.10;1.00;;;;;;5036615;28;20516;-62
2023/03/04 10:05:04;;;;;;;26.07;23.33;;;30.70;1.00;;;;;;5040235;28;20459;-62
2023/03/04 10:07:37;;;;;;;27.07;24.10;;;31.30;1.00;;;;;;5039405;28;20478;-62
2023/03/04 10:10:12;;;;;;;27.17;24.10;;;31.60;1.00;;;;;;5039147;28;20903;-62
2023/03/04 10:12:43;;;;;;;29.63;25.60;;;31.50;1.00;;;;;;5041519;28;20465;-62
2023/03/04 10:15:21;;;;;;;27.03;24.20;;;31.90;1.00;;;;;;5039265;28;20553;-61
2023/03/04 10:17:52;;;;;;;26.73;22.73;;;32.20;1.00;;;;;;5038619;28;21079;-62
2023/03/04 10:20:22;;;;;;;27.90;24.97;;;31.90;1.00;;;;;;5034724;28;20471;-62
2023/03/04 10:22:53;;;;;;;26.93;22.60;;;31.50;1.00;;;;;;5029898;28;21005;-60
2023/03/04 10:25:21;;;;;;;31.87;25.10;;;31.10;1.00;;;;;;5034425;28;20549;-60
2023/03/04 10:27:52;;;;;;;28.43;24.67;;;30.80;1.00;;;;;;5036269;28;20591;-61
2023/03/04 10:30:30;;;;;;;29.27;24.60;;;30.50;1.00;;;;;;5035516;28;21085;-62
2023/03/04 10:32:57;;;;;;;31.17;25.00;;;30.40;1.00;;;;;;5034824;28;20878;-60
2023/03/04 10:35:33;;;;;;;30.60;26.37;;;30.40;1.00;;;;;;5036986;28;20468;-60
2023/03/04 10:38:03;;;;;;;27.23;24.17;;;30.30;1.00;;;;;;5035688;28;20488;-61
2023/03/04 10:40:36;;;;;;;28.87;25.30;;;30.00;1.00;;;;;;5036116;28;20910;-60
2023/03/04 10:43:06;;;;;;;29.20;24.63;;;29.40;1.00;;;;;;5035462;28;21286;-60
2023/03/04 10:45:38;;;;;;;29.70;24.27;;;28.70;1.00;;;;;;5045309;28;20540;-62
2023/03/04 10:48:06;;;;;;;29.73;25.10;;;28.20;1.00;;;;;;5038322;28;20486;-62
2023/03/04 10:50:33;;;;;;;29.30;24.57;;;28.00;1.00;;;;;;5039018;28;20458;-60
2023/03/04 10:53:01;;;;;;;31.30;24.10;;;27.60;1.00;;;;;;5036332;28;20451;-61
2023/03/04 10:55:30;;;;;;;28.77;24.00;;;27.30;1.00;;;;;;5047493;28;20494;-61
2023/03/04 10:58:02;;;;;;;30.70;25.83;;;26.80;1.00;;;;;;5054002;28;20477;-61
2023/03/04 11:00:32;;;;;;;31.30;25.00;;;26.30;1.00;;;;;;5043205;28;20462;-61
2023/03/04 11:03:24;;;;;;;33.40;26.53;;;25.70;1.00;;;;;;5037496;28;21142;-60
2023/03/04 11:05:53;;;;;;;32.03;26.37;;;25.10;1.00;;;;;;5017691;28;20531;-62
2023/03/04 11:08:23;;;;;;;38.20;27.53;;;24.60;1.00;;;;;;5044412;28;20489;-61
2023/03/04 11:10:52;;;;;;;30.67;24.10;;;24.00;1.00;;;;;;5039723;28;20455;-61
2023/03/04 11:13:21;;;;;;;33.40;27.23;;;23.50;1.00;;;;;;5040543;28;20459;-61
2023/03/04 11:15:52;;;;;;;32.03;24.83;;;22.70;1.00;;;;;;5036320;28;20462;-60
2023/03/04 11:18:25;;;;;;;31.37;24.60;;;22.30;1.00;;;;;;5042030;28;20470;-61
2023/03/04 11:20:55;;;;;;;33.13;25.03;;;21.80;1.00;;;;;;5039403;28;20458;-63
2023/03/04 11:23:33;;;;;;;32.67;24.33;;;21.50;1.00;;;;;;5036382;28;20461;-62
2023/03/04 11:26:03;;;;;;;31.77;23.27;;;21.10;1.00;;;;;;5037467;28;20541;-61
2023/03/04 11:28:39;;;;;;;32.10;22.60;;;20.50;1.00;;;;;;5038729;28;20479;-66
2023/03/04 11:31:12;;;;;;;31.70;23.83;;;20.10;1.00;;;;;;5038974;28;20473;-61
2023/03/04 11:33:45;;;;;;;33.03;24.63;;;19.80;1.00;;;;;;5044384;28;20458;-60
2023/03/04 11:36:33;;;;;;;30.93;23.10;;;19.50;1.00;;;;;;5045174;28;20465;-58
2023/03/04 11:39:03;;;;;;;31.43;23.27;;;19.30;1.00;;;;;;5045809;28;20568;-61
2023/03/04 11:41:35;;;;;;;29.90;22.53;;;19.10;1.00;;;;;;5052529;28;20455;-61
2023/03/04 11:44:05;;;;;;;34.17;22.97;;;19.10;1.00;;;;;;5048298;28;20469;-60
2023/03/04 11:47:11;;;;;;;35.73;22.83;;;19.10;1.00;;;;;;5047971;28;20501;-60
2023/03/04 11:50:05;;;;;;;35.03;23.33;;;19.20;1.00;;;;;;5050724;28;20458;-59
2023/03/04 11:52:51;;;;;;;31.33;22.77;;;19.20;1.00;;;;;;5045648;28;20458;-59
2023/03/04 11:55:32;;;;;;;27.90;21.07;;;19.30;1.00;;;;;;5037014;28;20458;-62
2023/03/04 11:58:09;;;;;;;30.27;22.43;;;19.20;1.00;;;;;;5036400;28;20477;-60
2023/03/04 12:00:43;;;;;;;33.83;22.57;;;19.10;1.00;;;;;;5037440;28;20478;-60
2023/03/04 12:03:43;;;;;;;28.80;21.60;;;19.20;1.00;;;;;;5039855;28;20458;-62
2023/03/04 12:06:18;;;;;;;29.67;21.90;;;19.30;1.00;;;;;;5040114;28;20469;-61
2023/03/04 12:09:00;;;;;;;31.47;22.97;;;19.10;1.00;;;;;;5032745;28;20885;-60
2023/03/04 12:11:39;;;;;;;33.37;22.37;;;18.90;1.00;;;;;;5039313;28;20462;-61
2023/03/04 12:14:19;;;;;;;35.10;23.30;;;18.80;1.00;;;;;;5035602;28;20465;-62
2023/03/04 12:17:11;;;;;;;33.80;22.40;;;18.80;1.00;;;;;;5040701;28;20451;-62
2023/03/04 12:19:50;;;;;;;33.67;24.10;;;18.80;1.00;;;;;;5036437;28;20454;-62
2023/03/04 12:22:34;;;;;;;31.77;21.53;;;18.40;1.00;;;;;;5038020;28;20462;-62
2023/03/04 12:25:28;;;;;;;30.30;21.00;;;18.00;1.00;;;;;;5040197;28;20473;-61
2023/03/04 12:28:10;;;;;;;29.30;21.90;;;17.60;1.00;;;;;;5041797;28;20478;-62
2023/03/04 12:30:49;;;;;;;31.10;21.33;;;17.70;1.00;;;;;;5041193;28;20997;-62
2023/03/04 12:33:27;;;;;;;31.33;22.23;;;17.90;1.00;;;;;;5042531;28;20579;-61
2023/03/04 12:36:07;;;;;;;34.97;21.80;;;17.90;1.00;;;;;;5039807;28;20489;-60
2023/03/04 12:38:45;;;;;;;34.17;23.30;;;17.80;1.00;;;;;;5040330;28;20997;-63
2023/03/04 12:41:28;;;;;;;33.97;23.00;;;17.20;1.00;;;;;;5039534;28;20458;-62
2023/03/04 12:44:04;;;;;;;35.47;22.50;;;16.70;1.00;;;;;;5041037;28;20496;-63
2023/03/04 12:46:41;;;;;;;32.70;22.70;;;16.30;1.00;;;;;;5038461;28;20527;-62